Time;durP1;ratioP1;P1;durP2;ratioP2;P2;SDS_P1;SDS_P2;PMS_P1;PMS_P2;Temp;Humidity;BMP_temperature;BMP_pressure;BME280_temperature;BME280_humidity;BME280_pressure;Samples;Min_cycle;Max_cycle;Signal;HPM_P1;HPM_P2
2021/09/25 00:00:27;;;;;;;10.90;5.88;;;;;;;16.50;89.17;100772.59;4919834;28;20162;-85
2021/09/25 00:02:57;;;;;;;8.95;6.35;;;;;;;16.51;89.38;100776.09;4912328;28;20062;-85
2021/09/25 00:05:30;;;;;;;8.35;6.93;;;;;;;16.51;89.21;100776.94;4920922;28;20138;-84
2021/09/25 00:07:57;;;;;;;8.35;6.10;;;;;;;16.51;89.44;100776.09;4912309;28;20066;-84
2021/09/25 00:10:25;;;;;;;6.53;5.57;;;;;;;16.50;89.56;100774.34;4899642;28;20421;-84
2021/09/25 00:12:53;;;;;;;10.35;6.63;;;;;;;16.50;89.55;100774.34;4898962;28;20051;-86
2021/09/25 00:15:22;;;;;;;10.77;6.18;;;;;;;16.50;89.81;100784.91;4905030;28;20314;-85
2021/09/25 00:17:52;;;;;;;11.05;6.78;;;;;;;16.49;89.40;100772.63;4919887;28;21058;-86
2021/09/25 00:20:20;;;;;;;8.98;6.07;;;;;;;16.49;89.75;100770.84;4937445;28;20991;-84
2021/09/25 00:22:47;;;;;;;10.10;6.55;;;;;;;16.49;89.86;100768.22;4917661;28;20115;-86
2021/09/25 00:25:14;;;;;;;10.18;7.53;;;;;;;16.51;89.97;100768.16;4916792;28;22439;-86
2021/09/25 00:27:40;;;;;;;10.82;8.15;;;;;;;16.52;90.00;100769.91;4919084;28;20114;-85
2021/09/25 00:30:11;;;;;;;8.90;6.68;;;;;;;16.51;89.98;100779.59;4914182;28;20059;-86
2021/09/25 00:32:38;;;;;;;8.43;7.10;;;;;;;16.51;90.11;100773.44;4917867;28;20778;-87
2021/09/25 00:35:08;;;;;;;9.00;6.85;;;;;;;16.50;90.36;100777.00;4900092;28;20047;-85
2021/09/25 00:37:34;;;;;;;8.63;7.10;;;;;;;16.48;90.38;100774.41;4897756;28;21223;-86
2021/09/25 00:40:01;;;;;;;8.90;6.80;;;;;;;16.45;90.84;100771.88;4902833;28;20051;-85
2021/09/25 00:42:30;;;;;;;8.82;7.20;;;;;;;16.46;90.53;100773.56;4915010;28;20039;-84
2021/09/25 00:44:56;;;;;;;8.60;7.03;;;;;;;16.45;91.27;100776.28;4922788;28;20047;-86
2021/09/25 00:47:23;;;;;;;10.55;8.02;;;;;;;16.45;91.06;100771.00;4897771;28;20475;-85
2021/09/25 00:49:50;;;;;;;8.13;7.32;;;;;;;16.44;90.89;100783.34;4920522;28;20522;-84
2021/09/25 00:52:17;;;;;;;11.00;7.25;;;;;;;16.42;91.24;100777.22;4929701;28;20099;-86
2021/09/25 00:54:48;;;;;;;9.77;8.45;;;;;;;16.40;91.33;100781.72;4931590;28;20062;-87
2021/09/25 00:57:15;;;;;;;11.10;9.05;;;;;;;16.38;91.94;100783.53;4925773;28;20079;-84
2021/09/25 00:59:44;;;;;;;15.18;7.85;;;;;;;16.35;91.79;100786.28;4904275;28;20047;-85
2021/09/25 01:02:16;;;;;;;10.20;7.28;;;;;;;16.32;91.97;100786.34;4899587;28;20055;-84
2021/09/25 01:04:43;;;;;;;9.88;8.30;;;;;;;16.32;92.18;100775.78;4900873;28;20055;-85
2021/09/25 01:07:09;;;;;;;11.80;9.15;;;;;;;16.32;92.22;100773.16;4916105;28;20043;-85
2021/09/25 01:09:36;;;;;;;12.93;9.25;;;;;;;16.32;92.11;100786.34;4916589;28;20058;-84
2021/09/25 01:12:03;;;;;;;12.43;8.15;;;;;;;16.28;92.30;100782.97;4915407;28;20573;-85
2021/09/25 01:14:31;;;;;;;10.73;8.55;;;;;;;16.30;92.23;100777.63;4914832;28;20059;-85
2021/09/25 01:17:14;;;;;;;13.45;9.25;;;;;;;16.30;92.22;100777.63;4913749;29;20130;-85
2021/09/25 01:19:43;;;;;;;12.45;8.68;;;;;;;16.28;92.64;100782.97;4904489;28;20056;-83
2021/09/25 01:22:12;;;;;;;11.60;7.93;;;;;;;16.27;92.23;100781.22;4891516;28;20444;-87
2021/09/25 01:24:41;;;;;;;12.32;8.38;;;;;;;16.28;92.41;100780.31;4917921;28;20051;-86
2021/09/25 01:27:08;;;;;;;9.52;7.70;;;;;;;16.28;92.30;100797.94;4914872;28;20054;-84
2021/09/25 01:29:36;;;;;;;10.30;8.07;;;;;;;16.27;92.32;100790.91;4935065;28;20078;-85
2021/09/25 01:32:05;;;;;;;10.70;7.70;;;;;;;16.27;92.37;100791.78;4910834;28;21332;-85
2021/09/25 01:34:33;;;;;;;12.13;8.45;;;;;;;16.28;92.41;100800.56;4937546;28;20618;-85
2021/09/25 01:36:59;;;;;;;9.52;8.35;;;;;;;16.30;92.03;100793.47;4936457;28;20051;-86
2021/09/25 01:39:30;;;;;;;8.75;7.35;;;;;;;16.28;92.20;100800.56;4936380;28;20090;-84
2021/09/25 01:41:58;;;;;;;11.38;7.90;;;;;;;16.28;91.87;100797.94;4916223;28;20062;-85
2021/09/25 01:44:26;;;;;;;11.48;8.05;;;;;;;16.26;91.82;100792.69;4936462;28;20652;-85
2021/09/25 01:46:58;;;;;;;9.00;7.57;;;;;;;16.26;91.79;100799.78;4938836;28;20450;-84
2021/09/25 01:49:26;;;;;;;9.75;6.65;;;;;;;16.25;91.56;100793.59;4939301;28;20062;-84
2021/09/25 01:51:53;;;;;;;11.15;7.88;;;;;;;16.27;91.38;100797.06;4910107;28;20067;-83
2021/09/25 01:54:20;;;;;;;11.52;7.55;;;;;;;16.28;91.40;100797.94;4938107;28;20058;-85
2021/09/25 01:56:47;;;;;;;9.73;6.28;;;;;;;16.27;91.25;100802.34;4932192;28;20075;-84
2021/09/25 01:59:14;;;;;;;8.45;7.05;;;;;;;16.27;91.18;100806.75;4918723;28;20055;-84
2021/09/25 02:01:41;;;;;;;8.23;6.70;;;;;;;16.28;91.08;100803.22;4919708;28;20653;-85
2021/09/25 02:04:08;;;;;;;10.40;6.70;;;;;;;16.29;90.94;100804.94;4937761;28;20043;-85
2021/09/25 02:06:34;;;;;;;10.25;7.38;;;;;;;16.29;90.97;100800.53;4938842;28;20134;-85
2021/09/25 02:09:01;;;;;;;7.20;6.18;;;;;;;16.29;90.97;100797.88;4925161;28;20057;-85
2021/09/25 02:11:27;;;;;;;8.27;7.47;;;;;;;16.28;90.79;100803.22;4937418;28;20050;-85
2021/09/25 02:13:57;;;;;;;8.95;7.45;;;;;;;16.29;90.92;100800.53;4914785;28;20620;-86
2021/09/25 02:16:23;;;;;;;9.52;7.43;;;;;;;16.27;90.97;100807.66;4937581;28;20399;-86
2021/09/25 02:18:50;;;;;;;9.27;7.68;;;;;;;16.28;90.99;100809.38;4922517;28;20145;-84
2021/09/25 02:21:17;;;;;;;8.63;7.78;;;;;;;16.28;91.16;100803.22;4918120;28;20131;-85
2021/09/25 02:23:44;;;;;;;10.73;9.20;;;;;;;16.27;91.10;100801.47;4936074;28;20051;-86
2021/09/25 02:26:10;;;;;;;10.10;9.15;;;;;;;16.25;91.32;100793.59;4934631;28;20167;-83
2021/09/25 02:28:37;;;;;;;13.05;8.80;;;;;;;16.28;91.06;100797.94;4924014;28;20122;-85
2021/09/25 02:31:06;;;;;;;9.88;8.70;;;;;;;16.26;91.30;100802.41;4919302;28;20043;-83
2021/09/25 02:33:33;;;;;;;11.15;9.55;;;;;;;16.24;91.36;100801.59;4920779;28;20531;-84
2021/09/25 02:36:00;;;;;;;10.32;9.32;;;;;;;16.22;91.26;100804.28;4939511;28;20067;-87
2021/09/25 02:38:27;;;;;;;12.25;9.77;;;;;;;16.23;91.32;100808.66;4933704;28;20043;-85
2021/09/25 02:40:53;;;;;;;12.27;9.45;;;;;;;16.22;91.25;100806.91;4941481;28;20110;-84
2021/09/25 02:43:20;;;;;;;11.63;9.50;;;;;;;16.23;91.52;100813.94;4931860;28;21016;-86
2021/09/25 02:45:47;;;;;;;13.93;10.70;;;;;;;16.23;91.60;100813.94;4930799;28;20114;-86
2021/09/25 02:48:13;;;;;;;12.57;9.95;;;;;;;16.20;92.07;100809.59;4918317;28;20051;-85
2021/09/25 02:50:40;;;;;;;11.40;10.30;;;;;;;16.18;91.89;100810.56;4913200;28;20870;-85
2021/09/25 02:53:07;;;;;;;12.70;10.63;;;;;;;16.14;92.54;100809.78;4927366;28;20046;-85
2021/09/25 02:55:36;;;;;;;17.67;10.80;;;;;;;16.12;92.83;100808.09;4935875;28;20102;-84
2021/09/25 02:58:03;;;;;;;14.95;11.43;;;;;;;16.08;93.06;100811.75;4939150;28;20106;-85
2021/09/25 03:00:29;;;;;;;13.43;11.80;;;;;;;16.04;93.27;100811.81;4916682;28;20107;-86
2021/09/25 03:02:56;;;;;;;14.27;11.23;;;;;;;16.01;93.64;100808.44;4934211;28;20062;-85
2021/09/25 03:05:22;;;;;;;16.38;10.60;;;;;;;16.01;93.60;100809.28;4933063;28;20047;-86
2021/09/25 03:07:49;;;;;;;13.70;11.20;;;;;;;15.99;93.37;100804.94;4951055;28;20074;-86
2021/09/25 03:10:16;;;;;;;11.75;10.55;;;;;;;15.99;93.39;100807.59;4935390;28;20063;-84
2021/09/25 03:12:43;;;;;;;11.57;10.40;;;;;;;15.95;93.12;100811.22;4930735;28;20041;-86
2021/09/25 03:15:11;;;;;;;14.35;10.55;;;;;;;15.90;93.65;100802.56;4920361;28;20051;-86
2021/09/25 03:17:37;;;;;;;11.10;9.55;;;;;;;15.91;93.31;100806.97;4932351;28;20503;-86
2021/09/25 03:20:06;;;;;;;12.65;10.57;;;;;;;15.88;93.61;100798.19;4920628;28;20055;-84
2021/09/25 03:22:34;;;;;;;10.77;9.68;;;;;;;15.85;93.44;100800.94;4929680;28;20527;-86
2021/09/25 03:25:06;;;;;;;12.50;11.13;;;;;;;15.81;93.63;100799.31;4935402;28;20054;-86
2021/09/25 03:27:33;;;;;;;12.15;9.32;;;;;;;15.78;93.75;100799.34;4918582;28;20406;-86
2021/09/25 03:30:00;;;;;;;11.43;9.45;;;;;;;15.76;94.08;100797.66;4903000;28;20391;-85
2021/09/25 03:32:26;;;;;;;13.05;10.88;;;;;;;15.77;93.96;100796.75;4904749;28;20047;-84
2021/09/25 03:34:53;;;;;;;12.20;9.77;;;;;;;15.76;94.26;100790.63;4915938;28;20047;-86
2021/09/25 03:37:21;;;;;;;10.38;9.27;;;;;;;15.78;93.91;100807.25;4919579;28;20055;-83
2021/09/25 03:39:48;;;;;;;11.95;9.85;;;;;;;15.74;94.01;100796.84;4912357;28;20047;-85
2021/09/25 03:42:14;;;;;;;10.05;9.05;;;;;;;15.70;94.04;100803.97;4912415;28;20324;-84
2021/09/25 03:44:41;;;;;;;11.13;9.23;;;;;;;15.68;94.25;100806.66;4918600;28;20049;-85
2021/09/25 03:47:08;;;;;;;11.05;8.95;;;;;;;15.67;94.33;100809.31;4898255;28;20058;-86
2021/09/25 03:49:34;;;;;;;10.20;9.18;;;;;;;15.67;94.02;100804.94;4903425;28;20578;-85
2021/09/25 03:52:14;;;;;;;;;;;;;;;;;;;;;
2021/09/25 03:54:42;;;;;;;10.10;9.05;;;;;;;15.73;94.21;100813.59;4902511;28;20526;-86
2021/09/25 03:57:09;;;;;;;9.82;7.85;;;;;;;15.75;94.04;100815.28;4918511;28;20066;-86
2021/09/25 03:59:35;;;;;;;8.82;7.90;;;;;;;15.79;93.94;100808.13;4917102;28;20155;-84
2021/09/25 04:02:02;;;;;;;11.18;8.98;;;;;;;15.80;94.27;100813.38;4903279;28;20142;-84
2021/09/25 04:04:29;;;;;;;14.13;9.85;;;;;;;15.81;93.67;100804.59;4900920;28;20124;-86
2021/09/25 04:06:55;;;;;;;9.07;7.90;;;;;;;15.81;93.80;100803.69;4917705;28;20146;-85
2021/09/25 04:09:22;;;;;;;9.90;8.40;;;;;;;15.81;93.83;100806.34;4906741;28;20046;-85
2021/09/25 04:11:49;;;;;;;8.80;7.75;;;;;;;15.80;93.84;100805.44;4901828;28;20051;-84
2021/09/25 04:14:18;;;;;;;13.48;9.00;;;;;;;15.82;93.83;100808.06;4920441;28;20051;-87
2021/09/25 04:16:45;;;;;;;8.93;7.03;;;;;;;15.81;93.79;100804.59;4917016;28;20039;-89
2021/09/25 04:19:12;;;;;;;12.15;8.30;;;;;;;15.81;93.89;100806.34;4917175;28;20062;-86
2021/09/25 04:21:43;;;;;;;8.85;7.88;;;;;;;15.81;93.78;100809.84;4906475;28;20051;-86
2021/09/25 04:24:09;;;;;;;11.07;8.52;;;;;;;15.80;93.96;100809.84;4906363;28;20047;-86
2021/09/25 04:26:36;;;;;;;8.30;7.53;;;;;;;15.81;93.87;100808.97;4906090;28;20802;-87
2021/09/25 04:29:06;;;;;;;9.48;7.00;;;;;;;15.81;93.69;100812.50;4898335;28;20450;-86
2021/09/25 04:31:34;;;;;;;12.68;8.00;;;;;;;15.83;93.87;100821.22;4898348;28;20047;-86
2021/09/25 04:34:03;;;;;;;9.02;7.55;;;;;;;15.83;93.58;100820.38;4902981;28;20058;-87
2021/09/25 04:36:31;;;;;;;12.48;8.80;;;;;;;15.83;93.60;100820.38;4898174;28;20051;-85
2021/09/25 04:38:58;;;;;;;11.05;7.68;;;;;;;15.83;93.50;100817.72;4921067;28;20438;-85
2021/09/25 04:41:25;;;;;;;9.85;7.38;;;;;;;15.85;93.51;100818.53;4903862;28;20051;-86
2021/09/25 04:43:51;;;;;;;10.07;7.47;;;;;;;15.83;93.22;100818.59;4919754;28;20051;-85
2021/09/25 04:46:18;;;;;;;15.60;8.65;;;;;;;15.87;93.34;100822.00;4917849;28;20049;-86
2021/09/25 04:48:48;;;;;;;11.98;7.65;;;;;;;15.87;93.13;100825.50;4920308;28;20047;-86
2021/09/25 04:51:16;;;;;;;10.18;7.78;;;;;;;15.88;92.98;100827.25;4901194;28;20047;-85
2021/09/25 04:53:43;;;;;;;13.75;7.10;;;;;;;15.89;93.00;100830.72;4900335;28;20050;-86
2021/09/25 04:56:14;;;;;;;10.40;7.43;;;;;;;15.90;92.81;100824.56;4905302;28;20056;-85
2021/09/25 04:58:42;;;;;;;10.73;7.90;;;;;;;15.91;92.71;100823.66;4898717;28;20066;-87
2021/09/25 05:01:13;;;;;;;8.70;7.53;;;;;;;15.89;92.53;100828.09;4904951;28;20043;-87
2021/09/25 05:03:40;;;;;;;10.38;7.15;;;;;;;15.88;92.54;100834.31;4915668;28;20040;-87
2021/09/25 05:06:06;;;;;;;12.02;6.13;;;;;;;15.88;92.55;100837.78;4904952;28;20977;-84
2021/09/25 05:08:33;;;;;;;8.25;6.55;;;;;;;15.87;92.70;100824.66;4906631;29;20078;-88
2021/09/25 05:11:00;;;;;;;9.18;7.20;;;;;;;15.85;92.75;100837.91;4915201;28;20115;-87
2021/09/25 05:13:27;;;;;;;10.80;6.72;;;;;;;15.84;92.70;100833.53;4905967;28;20384;-87
2021/09/25 05:15:54;;;;;;;6.82;6.10;;;;;;;15.84;92.82;100836.16;4931604;28;20047;-85
2021/09/25 05:18:20;;;;;;;8.95;6.63;;;;;;;15.85;92.88;100839.66;4907312;28;20059;-85
2021/09/25 05:20:48;;;;;;;7.88;6.10;;;;;;;15.83;92.67;100842.34;4902498;28;20074;-87
2021/09/25 05:23:15;;;;;;;9.20;6.60;;;;;;;15.83;92.94;100841.50;4920343;28;20043;-88
2021/09/25 05:25:41;;;;;;;7.50;6.15;;;;;;;15.82;93.09;100837.97;4921012;28;20051;-89
2021/09/25 05:28:08;;;;;;;11.30;7.57;;;;;;;15.82;92.97;100839.75;4924065;28;20059;-87
2021/09/25 05:30:34;;;;;;;8.05;7.03;;;;;;;15.82;92.83;100847.66;4941877;28;20059;-86
2021/09/25 05:33:01;;;;;;;7.97;6.47;;;;;;;15.84;92.80;100846.72;4933259;28;20058;-85
2021/09/25 05:35:27;;;;;;;8.90;6.53;;;;;;;15.87;92.75;100840.50;4938401;28;20206;-85
2021/09/25 05:37:57;;;;;;;11.15;6.82;;;;;;;15.87;92.47;100851.06;4936652;28;20055;-87
2021/09/25 05:40:23;;;;;;;6.88;6.18;;;;;;;15.90;92.50;100852.75;4941098;28;20061;-85
2021/09/25 05:42:50;;;;;;;7.10;5.30;;;;;;;15.91;92.44;100846.56;4940633;28;20042;-87
2021/09/25 05:45:19;;;;;;;5.63;5.03;;;;;;;15.93;92.38;100848.25;4926912;28;20039;-86
2021/09/25 05:47:47;;;;;;;8.88;5.90;;;;;;;15.93;92.28;100850.88;4927181;28;20054;-85
2021/09/25 05:50:15;;;;;;;6.68;5.95;;;;;;;15.95;92.52;100854.31;4937192;28;20067;-87
2021/09/25 05:52:43;;;;;;;8.13;5.60;;;;;;;15.95;92.21;100850.84;4936811;28;20097;-86
2021/09/25 05:55:11;;;;;;;7.85;4.90;;;;;;;15.96;92.26;100858.72;4928331;28;21581;-87
2021/09/25 05:57:37;;;;;;;6.65;5.00;;;;;;;15.97;92.34;100857.81;4932416;28;20106;-87
2021/09/25 06:00:08;;;;;;;9.75;6.57;;;;;;;15.98;92.31;100853.38;4923820;28;20046;-85
2021/09/25 06:02:44;;;;;;;9.35;5.43;;;;;;;16.00;92.32;100857.72;4930090;28;20050;-86
2021/09/25 06:05:11;;;;;;;7.13;5.50;;;;;;;16.01;92.14;100858.59;4926904;28;20062;-89
2021/09/25 06:07:44;;;;;;;6.50;5.90;;;;;;;16.04;92.09;100869.06;4940437;28;20106;-88
2021/09/25 06:10:11;;;;;;;5.35;4.15;;;;;;;16.05;92.01;100865.50;4925032;28;20518;-86
2021/09/25 06:12:38;;;;;;;6.53;5.72;;;;;;;16.07;91.99;100868.09;4924137;28;20046;-86
2021/09/25 06:15:07;;;;;;;9.85;6.10;;;;;;;16.07;91.84;100861.03;4942074;28;20055;-85
2021/09/25 06:17:34;;;;;;;6.00;4.82;;;;;;;16.10;91.78;100865.38;4928097;28;20054;-87
2021/09/25 06:20:00;;;;;;;5.60;4.35;;;;;;;16.13;91.79;100860.88;4925511;28;20043;-85
2021/09/25 06:22:27;;;;;;;10.15;6.72;;;;;;;16.15;91.34;100866.97;4942413;28;20051;-86
2021/09/25 06:24:54;;;;;;;7.35;5.25;;;;;;;16.18;91.23;100866.88;4939480;28;20141;-85
2021/09/25 06:27:21;;;;;;;9.55;4.85;;;;;;;16.20;91.05;100866.84;4944057;28;20738;-85
2021/09/25 06:29:47;;;;;;;6.25;5.00;;;;;;;16.24;90.74;100864.97;4911585;28;20058;-84
2021/09/25 06:32:14;;;;;;;6.45;5.40;;;;;;;16.26;90.68;100866.66;4926091;28;20074;-86
2021/09/25 06:34:41;;;;;;;10.70;6.75;;;;;;;16.30;90.48;100870.09;4927976;28;20039;-87
2021/09/25 06:37:07;;;;;;;6.07;5.00;;;;;;;16.32;90.01;100870.88;4923305;28;20051;-86
2021/09/25 06:39:34;;;;;;;6.03;4.88;;;;;;;16.38;89.89;100873.34;4909681;28;20052;-87
2021/09/25 06:42:01;;;;;;;4.65;3.95;;;;;;;16.45;89.48;100880.22;4908164;28;20058;-87
2021/09/25 06:44:27;;;;;;;6.93;5.13;;;;;;;16.52;88.72;100872.94;4911303;28;20051;-87
2021/09/25 06:46:54;;;;;;;4.35;3.95;;;;;;;16.57;88.86;100875.44;4906550;28;20062;-86
2021/09/25 06:49:22;;;;;;;11.85;5.40;;;;;;;16.62;88.62;100877.06;4925993;28;20059;-88
2021/09/25 06:51:49;;;;;;;7.00;5.10;;;;;;;16.65;88.17;100884.88;4926382;28;20070;-86
2021/09/25 06:54:18;;;;;;;6.57;4.88;;;;;;;16.66;87.74;100878.69;4923232;28;20087;-85
2021/09/25 06:56:45;;;;;;;8.10;4.50;;;;;;;16.70;88.09;100882.09;4928313;28;20047;-88
2021/09/25 06:59:12;;;;;;;6.78;4.35;;;;;;;16.72;87.98;100884.69;4922575;28;20662;-88
2021/09/25 07:01:38;;;;;;;4.53;4.13;;;;;;;16.72;88.10;100888.19;4926147;28;20048;-87
2021/09/25 07:04:08;;;;;;;7.35;5.88;;;;;;;16.73;87.66;100889.06;4908945;28;20047;-85
2021/09/25 07:06:39;;;;;;;8.07;4.90;;;;;;;16.71;88.17;100883.81;4927143;28;20046;-87
2021/09/25 07:09:06;;;;;;;7.13;5.05;;;;;;;16.72;88.02;100892.63;4913398;28;20062;-88
2021/09/25 07:11:33;;;;;;;8.77;5.80;;;;;;;16.76;87.93;100888.97;4922142;28;20463;-87
2021/09/25 07:14:00;;;;;;;7.90;5.25;;;;;;;16.81;88.01;100890.53;4913407;28;20110;-87
2021/09/25 07:16:27;;;;;;;4.75;4.35;;;;;;;16.85;87.76;100888.69;4923814;28;20046;-88
2021/09/25 07:18:54;;;;;;;6.05;4.85;;;;;;;16.92;87.63;100892.03;4923082;28;20074;-85
2021/09/25 07:21:25;;;;;;;7.93;5.97;;;;;;;16.97;87.28;100903.31;4928347;28;20058;-87
2021/09/25 07:23:52;;;;;;;10.65;5.55;;;;;;;17.00;87.41;100901.44;4919457;28;20081;-85
2021/09/25 07:26:22;;;;;;;5.78;5.18;;;;;;;17.04;87.12;100902.22;4922743;28;20066;-86
2021/09/25 07:28:49;;;;;;;6.00;4.22;;;;;;;17.09;86.96;100907.34;4937078;28;20067;-87
2021/09/25 07:31:16;;;;;;;5.57;5.07;;;;;;;17.15;86.30;100905.38;4920272;28;20095;-87
2021/09/25 07:33:43;;;;;;;6.20;4.95;;;;;;;17.22;85.71;100918.41;4922151;28;21262;-87
2021/09/25 07:36:11;;;;;;;6.88;4.70;;;;;;;17.28;85.45;100905.84;4924856;28;20063;-86
2021/09/25 07:38:39;;;;;;;8.52;4.47;;;;;;;17.34;84.04;100918.88;4921143;28;20043;-87
2021/09/25 07:41:06;;;;;;;4.88;4.20;;;;;;;17.39;83.47;100916.09;4924178;28;20439;-88
2021/09/25 07:43:33;;;;;;;4.63;4.10;;;;;;;17.46;82.82;100920.25;4909128;28;20051;-86
2021/09/25 07:45:59;;;;;;;5.50;4.05;;;;;;;17.50;81.79;100921.88;4906368;28;20047;-85
2021/09/25 07:48:26;;;;;;;6.38;3.30;;;;;;;17.55;81.42;100927.03;4923649;28;20039;-86
2021/09/25 07:50:53;;;;;;;4.57;3.85;;;;;;;17.59;80.85;100927.78;4904327;28;20311;-89
2021/09/25 07:53:20;;;;;;;5.78;3.67;;;;;;;17.61;80.55;100933.88;4920371;28;20466;-86
2021/09/25 07:55:47;;;;;;;4.32;3.55;;;;;;;17.60;80.79;100937.44;4910838;28;20570;-90
2021/09/25 07:58:16;;;;;;;4.05;3.65;;;;;;;17.58;80.19;100934.00;4920526;28;20042;-86
2021/09/25 08:00:43;;;;;;;5.82;3.40;;;;;;;17.60;80.69;100937.44;4910109;28;20047;-87
2021/09/25 08:03:10;;;;;;;3.85;3.45;;;;;;;17.69;80.56;100935.34;4921799;28;20074;-85
2021/09/25 08:05:36;;;;;;;5.13;3.92;;;;;;;17.82;79.79;100941.09;4925086;28;20913;-88
2021/09/25 08:08:06;;;;;;;4.55;3.70;;;;;;;17.85;78.88;100948.06;4919101;28;20059;-88
2021/09/25 08:10:33;;;;;;;4.18;3.13;;;;;;;17.89;78.95;100941.75;4924509;28;20054;-87
2021/09/25 08:13:00;;;;;;;4.43;3.10;;;;;;;17.96;77.92;100945.06;4926433;28;20039;-86
2021/09/25 08:15:27;;;;;;;6.38;3.60;;;;;;;17.97;78.01;100950.31;4894276;28;20074;-88
2021/09/25 08:17:54;;;;;;;5.07;4.22;;;;;;;17.98;77.81;100944.09;4901401;28;20043;-88
2021/09/25 08:20:23;;;;;;;4.93;3.42;;;;;;;17.97;77.68;100952.97;4902895;28;20595;-86
2021/09/25 08:22:51;;;;;;;6.47;3.55;;;;;;;18.07;76.84;100949.97;4905468;28;20487;-86
2021/09/25 08:25:19;;;;;;;4.75;3.63;;;;;;;18.12;76.39;100942.72;4903725;28;20381;-87
2021/09/25 08:27:48;;;;;;;4.78;3.40;;;;;;;18.14;75.94;100952.34;4921011;28;20086;-87
2021/09/25 08:30:16;;;;;;;3.55;2.90;;;;;;;18.24;75.49;100949.38;4921293;28;20051;-86
2021/09/25 08:32:43;;;;;;;6.50;3.05;;;;;;;18.30;75.11;100955.34;4898012;28;20046;-85
2021/09/25 08:35:10;;;;;;;6.72;3.47;;;;;;;18.28;74.29;100954.53;4902353;28;20047;-85
2021/09/25 08:37:38;;;;;;;4.82;3.38;;;;;;;18.21;74.87;100957.44;4903547;29;20055;-85
2021/09/25 08:40:09;;;;;;;6.43;3.08;;;;;;;18.15;75.41;100961.19;4936549;28;20054;-87
2021/09/25 08:42:36;;;;;;;3.97;2.97;;;;;;;18.12;75.74;100956.88;4904141;28;20087;-87
2021/09/25 08:45:06;;;;;;;5.93;2.95;;;;;;;18.15;75.99;100966.50;4923603;28;20070;-87
2021/09/25 08:47:35;;;;;;;5.28;3.42;;;;;;;18.19;75.81;100970.75;4906732;28;20055;-85
2021/09/25 08:50:04;;;;;;;9.38;3.60;;;;;;;18.30;74.98;100965.06;4919583;28;20054;-87
2021/09/25 08:55:35;;;;;;;4.47;2.65;;;;;;;18.53;73.89;100977.47;4941885;28;20043;-85
2021/09/25 08:58:02;;;;;;;7.20;3.35;;;;;;;18.62;73.92;100984.22;4912559;28;20066;-87
2021/09/25 09:00:48;;;;;;;3.53;3.22;;;;;;;18.64;73.94;100982.38;4908466;28;20102;-87
2021/09/25 09:03:37;;;;;;;3.90;3.17;;;;;;;18.72;74.03;100980.31;4919471;28;21436;-86
2021/09/25 09:06:33;;;;;;;4.53;2.88;;;;;;;18.95;73.20;100986.56;4913820;28;20748;-88
2021/09/25 09:09:05;;;;;;;7.22;3.15;;;;;;;19.11;72.67;100989.47;4925655;28;20127;-88
2021/09/25 09:11:32;;;;;;;4.05;2.92;;;;;;;19.13;72.53;100987.63;4902046;28;20047;-86
2021/09/25 09:14:02;;;;;;;5.20;3.55;;;;;;;19.04;72.15;100988.84;4921342;28;20051;-87
2021/09/25 09:16:32;;;;;;;6.00;2.53;;;;;;;18.97;72.78;100992.66;4905337;28;20058;-85
2021/09/25 09:19:00;;;;;;;7.78;2.72;;;;;;;18.92;73.00;100991.97;4927716;28;20053;-87
2021/09/25 09:21:30;;;;;;;4.53;2.72;;;;;;;19.02;73.07;100996.00;4924214;28;20819;-87
2021/09/25 09:24:10;;;;;;;4.72;2.95;;;;;;;19.11;72.47;100995.66;4900138;28;20043;-87
2021/09/25 09:26:43;;;;;;;4.60;3.10;;;;;;;19.33;71.95;100992.13;4927189;28;20426;-86
2021/09/25 09:29:11;;;;;;;3.40;2.58;;;;;;;19.62;70.69;100995.38;4877653;29;1042691;-89
2021/09/25 09:31:40;;;;;;;4.13;3.45;;;;;;;19.77;69.84;101000.06;4918009;28;20063;-86
2021/09/25 09:34:09;;;;;;;8.77;3.72;;;;;;;19.90;69.28;100988.97;4926598;28;20047;-85
2021/09/25 09:36:42;;;;;;;4.63;3.17;;;;;;;20.14;68.62;100995.00;4927787;28;20438;-86
2021/09/25 09:39:20;;;;;;;5.50;3.22;;;;;;;20.32;68.00;100999.53;4914460;28;20051;-84
2021/09/25 09:41:58;;;;;;;5.43;2.80;;;;;;;20.26;68.01;101001.56;4916061;28;20125;-85
2021/09/25 09:44:31;;;;;;;3.80;3.30;;;;;;;20.16;67.72;100994.00;4915142;28;20051;-86
2021/09/25 09:47:05;;;;;;;5.45;3.15;;;;;;;20.07;68.13;100991.75;4919529;28;20129;-86
2021/09/25 09:49:37;;;;;;;3.85;2.65;;;;;;;20.04;68.49;100997.19;4926530;28;20142;-85
2021/09/25 09:52:13;;;;;;;3.58;2.67;;;;;;;20.14;67.95;101002.97;4929417;28;20128;-87
2021/09/25 09:54:49;;;;;;;5.43;2.97;;;;;;;20.20;68.20;101002.69;4942088;28;20067;-86
2021/09/25 09:57:19;;;;;;;5.28;3.80;;;;;;;20.15;68.70;101002.03;4936712;28;20143;-86
2021/09/25 09:59:51;;;;;;;5.80;3.22;;;;;;;20.11;68.72;101001.31;4920242;28;20043;-85
2021/09/25 10:02:38;;;;;;;5.22;3.45;;;;;;;20.09;68.92;101011.16;4936073;28;20806;-85
2021/09/25 10:05:05;;;;;;;7.95;3.38;;;;;;;20.08;69.31;101012.06;4922404;28;20051;-88
2021/09/25 10:07:32;;;;;;;4.60;2.80;;;;;;;20.11;68.89;101003.97;4929550;28;20058;-85
2021/09/25 10:09:59;;;;;;;9.70;3.83;;;;;;;20.10;68.57;101009.34;4913162;28;20055;-86
2021/09/25 10:12:26;;;;;;;5.55;2.92;;;;;;;20.02;68.71;101014.13;4930611;28;20087;-83
2021/09/25 10:14:54;;;;;;;8.52;4.03;;;;;;;19.96;68.92;101020.59;4908440;28;20047;-85
2021/09/25 10:20:10;;;;;;;3.72;3.42;;;;;;;19.74;69.61;101007.31;4910995;28;20051;-85
2021/09/25 10:22:52;;;;;;;6.13;3.20;;;;;;;19.89;69.24;101014.63;4918066;28;20122;-83
2021/09/25 10:25:19;;;;;;;6.75;3.60;;;;;;;20.15;68.17;101008.25;4930948;28;20047;-84
2021/09/25 10:27:47;;;;;;;4.68;3.05;;;;;;;20.34;67.13;101012.75;4911999;28;20051;-85
2021/09/25 10:30:19;;;;;;;6.10;3.17;;;;;;;20.30;67.09;101008.50;4940234;28;20046;-86
2021/09/25 10:32:55;;;;;;;3.60;3.30;;;;;;;20.20;67.77;101023.13;4942269;28;20047;-83
2021/09/25 10:35:32;;;;;;;5.45;3.22;;;;;;;20.21;67.65;101031.00;4928175;28;20047;-85
2021/09/25 10:38:02;;;;;;;7.35;3.35;;;;;;;20.11;68.12;101024.38;4928253;28;20141;-85
2021/09/25 10:40:39;;;;;;;5.90;3.40;;;;;;;20.06;68.61;101027.22;4931320;28;20130;-86
2021/09/25 10:43:19;;;;;;;4.68;2.42;;;;;;;20.30;68.11;101024.44;4944767;28;20206;-87
2021/09/25 10:45:51;;;;;;;6.07;3.10;;;;;;;20.75;66.29;101010.03;4959539;28;20054;-85
2021/09/25 10:48:23;;;;;;;3.97;2.17;;;;;;;21.11;65.31;101014.56;4960909;28;20570;-87
2021/09/25 10:51:21;;;;;;;4.20;2.37;;;;;;;21.47;63.39;101011.06;4943906;28;20470;-85
2021/09/25 10:53:51;;;;;;;5.60;2.97;;;;;;;22.05;61.69;101008.25;4930893;28;20062;-86
2021/09/25 10:59:08;;;;;;;6.40;2.42;;;;;;;23.89;55.75;101020.41;4959768;28;20161;-86
2021/09/25 11:01:43;;;;;;;6.25;3.35;;;;;;;24.66;51.94;101009.59;4927569;28;21401;-86
2021/09/25 11:04:24;;;;;;;3.42;2.80;;;;;;;24.81;51.75;101017.63;4950664;28;20061;-84
2021/09/25 11:06:57;;;;;;;3.85;2.42;;;;;;;24.96;51.38;101013.13;4946193;28;20487;-88
2021/09/25 11:09:29;;;;;;;2.20;2.00;;;;;;;24.69;51.73;101014.78;4928589;28;20058;-87
2021/09/25 11:12:26;;;;;;;6.22;2.10;;;;;;;24.38;53.48;101016.63;4966991;28;20114;-85
2021/09/25 11:15:19;;;;;;;4.85;2.70;;;;;;;24.66;53.05;101019.44;4950206;28;20047;-85
2021/09/25 11:17:48;;;;;;;4.43;1.90;;;;;;;24.84;51.82;101009.41;4949222;28;20149;-89
2021/09/25 11:20:19;;;;;;;4.50;2.58;;;;;;;24.69;51.44;101016.56;4934985;28;20058;-87
2021/09/25 11:22:47;;;;;;;4.82;2.75;;;;;;;24.26;52.64;101020.03;4930292;28;20118;-85
2021/09/25 11:25:18;;;;;;;4.35;2.42;;;;;;;23.49;55.05;101024.56;4938914;28;20039;-88
2021/09/25 11:27:52;;;;;;;5.82;2.95;;;;;;;22.96;55.97;101022.13;4935230;28;20069;-88
2021/09/25 11:30:34;;;;;;;3.72;2.55;;;;;;;22.75;56.78;101008.13;4926280;28;20062;-85
2021/09/25 11:33:05;;;;;;;3.70;2.47;;;;;;;23.59;55.11;101018.59;4948638;28;20514;-88
2021/09/25 11:35:38;;;;;;;2.67;2.45;;;;;;;24.55;53.04;101009.41;4928657;28;20049;-85
2021/09/25 11:38:09;;;;;;;4.90;2.97;;;;;;;25.22;51.19;101011.44;4953635;28;20059;-84
2021/09/25 11:40:42;;;;;;;4.43;2.70;;;;;;;24.87;51.72;101006.53;4946572;28;20077;-85